Главная страница
METAR-TAF:

METAR-TAF

Аэропорты :

Стокгольм-Вестерос

Вестерос, Швеция

широта: 59-35N, долгота: 016-38E, высота над уровнем моря: 6 м

Текущие метеонаблюдения

Эта сводка был подготовлена 36 минут назад, в 06:20 UTC
Ветер 10 Узел от юго-юго-восточный
Температура 7°C
Влажность 87%
Давление 1007 hPa
Видимость: 3800 м
дымка

METAR: ESOW 170620Z AUTO 16010KT 3800 BR BKN006/// OVC008/// 07/05 Q1007 RERA

Время: 07:56 (06:56 UTC)


TAF: отсутствует

Метеонаблюдения и прогнозы для более 4000 аэропортов (сводки METAR и TAF).

Имеющиеся станции представлены на карте желтыми и красными точками.

Чтобы увидеть название станции, наведите на нее мышь.

Затем щелкните, чтобы увидеть метеонаблюдения и метеопрогнозы.

Управление картой: чтобы увеличить масштаб, щелкните зеленые кнопки с черным крестиком; чтобы уменьшить масштаб, щелкните зеленую кнопку с тире; для просмотра соседних карт щелкайте зеленые стрелки.


METAR-TAF: